sensor_id;sensor_type;location;lat;lon;timestamp;temperature;humidity
16879;DHT22;8556;52.218;9.884;2024-02-21T00:02:20;8.60;1.00
16879;DHT22;8556;52.218;9.884;2024-02-21T00:04:47;8.60;1.00
16879;DHT22;8556;52.218;9.884;2024-02-21T00:07:15;8.60;1.00
16879;DHT22;8556;52.218;9.884;2024-02-21T00:09:42;8.60;1.00
16879;DHT22;8556;52.218;9.884;2024-02-21T00:12:10;8.60;99.90
16879;DHT22;8556;52.218;9.884;2024-02-21T00:14:39;8.60;99.90
16879;DHT22;8556;52.218;9.884;2024-02-21T00:17:06;8.60;99.90
16879;DHT22;8556;52.218;9.884;2024-02-21T00:19:34;8.60;99.90
16879;DHT22;8556;52.218;9.884;2024-02-21T00:22:00;8.60;99.90
16879;DHT22;8556;52.218;9.884;2024-02-21T00:24:29;8.50;99.90
16879;DHT22;8556;52.218;9.884;2024-02-21T00:26:55;8.50;1.00
16879;DHT22;8556;52.218;9.884;2024-02-21T00:29:22;8.60;1.00
16879;DHT22;8556;52.218;9.884;2024-02-21T00:31:49;8.50;1.00
16879;DHT22;8556;52.218;9.884;2024-02-21T00:34:16;8.50;1.00
16879;DHT22;8556;52.218;9.884;2024-02-21T00:36:43;8.50;1.00
16879;DHT22;8556;52.218;9.884;2024-02-21T00:39:10;8.60;1.00
16879;DHT22;8556;52.218;9.884;2024-02-21T00:41:38;8.60;1.00
16879;DHT22;8556;52.218;9.884;2024-02-21T00:44:05;8.50;1.00
16879;DHT22;8556;52.218;9.884;2024-02-21T00:46:32;8.50;1.00
16879;DHT22;8556;52.218;9.884;2024-02-21T00:48:59;8.50;1.00
16879;DHT22;8556;52.218;9.884;2024-02-21T00:51:26;8.50;99.90
16879;DHT22;8556;52.218;9.884;2024-02-21T00:53:52;8.50;99.90
16879;DHT22;8556;52.218;9.884;2024-02-21T00:56:20;8.60;1.00
16879;DHT22;8556;52.218;9.884;2024-02-21T00:58:48;8.50;24.40
16879;DHT22;8556;52.218;9.884;2024-02-21T01:01:21;8.60;1.00
16879;DHT22;8556;52.218;9.884;2024-02-21T01:03:49;8.60;1.00
16879;DHT22;8556;52.218;9.884;2024-02-21T01:06:16;8.60;1.00
16879;DHT22;8556;52.218;9.884;2024-02-21T01:08:43;8.60;1.00
16879;DHT22;8556;52.218;9.884;2024-02-21T01:11:10;8.60;1.00
16879;DHT22;8556;52.218;9.884;2024-02-21T01:13:37;8.60;1.00
16879;DHT22;8556;52.218;9.884;2024-02-21T01:16:06;8.70;99.90
16879;DHT22;8556;52.218;9.884;2024-02-21T01:18:33;8.70;99.90
16879;DHT22;8556;52.218;9.884;2024-02-21T01:20:59;8.70;99.90
16879;DHT22;8556;52.218;9.884;2024-02-21T01:23:27;8.70;99.90
16879;DHT22;8556;52.218;9.884;2024-02-21T01:25:53;8.60;1.00
16879;DHT22;8556;52.218;9.884;2024-02-21T01:28:20;8.70;1.00
16879;DHT22;8556;52.218;9.884;2024-02-21T01:30:47;8.60;99.90
16879;DHT22;8556;52.218;9.884;2024-02-21T01:33:16;8.60;1.00
16879;DHT22;8556;52.218;9.884;2024-02-21T01:35:42;8.60;99.90
16879;DHT22;8556;52.218;9.884;2024-02-21T01:38:09;8.60;99.90
16879;DHT22;8556;52.218;9.884;2024-02-21T01:40:36;8.70;99.90
16879;DHT22;8556;52.218;9.884;2024-02-21T01:43:03;8.80;25.60
16879;DHT22;8556;52.218;9.884;2024-02-21T01:45:30;8.70;1.00
16879;DHT22;8556;52.218;9.884;2024-02-21T01:47:57;8.70;1.00
16879;DHT22;8556;52.218;9.884;2024-02-21T01:50:26;8.80;1.00
16879;DHT22;8556;52.218;9.884;2024-02-21T01:52:53;8.80;99.90
16879;DHT22;8556;52.218;9.884;2024-02-21T01:55:20;8.80;99.90
16879;DHT22;8556;52.218;9.884;2024-02-21T01:57:47;8.80;99.90
16879;DHT22;8556;52.218;9.884;2024-02-21T02:00:15;8.80;99.90
16879;DHT22;8556;52.218;9.884;2024-02-21T02:02:42;8.80;99.90
16879;DHT22;8556;52.218;9.884;2024-02-21T02:05:10;8.80;99.90
16879;DHT22;8556;52.218;9.884;2024-02-21T02:07:39;8.70;99.90
16879;DHT22;8556;52.218;9.884;2024-02-21T02:10:07;8.80;99.90
16879;DHT22;8556;52.218;9.884;2024-02-21T02:12:35;8.80;99.90
16879;DHT22;8556;52.218;9.884;2024-02-21T02:15:03;8.80;52.40
16879;DHT22;8556;52.218;9.884;2024-02-21T02:17:31;8.80;56.50
16879;DHT22;8556;52.218;9.884;2024-02-21T02:19:58;8.80;1.00
16879;DHT22;8556;52.218;9.884;2024-02-21T02:22:28;8.80;1.00
16879;DHT22;8556;52.218;9.884;2024-02-21T02:24:56;8.80;1.00
16879;DHT22;8556;52.218;9.884;2024-02-21T02:27:24;8.90;1.00
16879;DHT22;8556;52.218;9.884;2024-02-21T02:29:50;8.80;1.00
16879;DHT22;8556;52.218;9.884;2024-02-21T02:32:17;8.80;1.00
16879;DHT22;8556;52.218;9.884;2024-02-21T02:34:44;8.90;1.00
16879;DHT22;8556;52.218;9.884;2024-02-21T02:37:11;8.90;1.00
16879;DHT22;8556;52.218;9.884;2024-02-21T02:39:38;8.90;1.00
16879;DHT22;8556;52.218;9.884;2024-02-21T02:42:06;8.80;1.00
16879;DHT22;8556;52.218;9.884;2024-02-21T02:44:34;8.80;1.00
16879;DHT22;8556;52.218;9.884;2024-02-21T02:47:01;8.90;1.00
16879;DHT22;8556;52.218;9.884;2024-02-21T02:49:27;8.90;1.00
16879;DHT22;8556;52.218;9.884;2024-02-21T02:51:54;8.90;1.00
16879;DHT22;8556;52.218;9.884;2024-02-21T02:54:21;8.80;1.00
16879;DHT22;8556;52.218;9.884;2024-02-21T02:56:50;8.90;99.90
16879;DHT22;8556;52.218;9.884;2024-02-21T02:59:18;8.90;99.90
16879;DHT22;8556;52.218;9.884;2024-02-21T03:01:45;8.90;99.90
16879;DHT22;8556;52.218;9.884;2024-02-21T03:04:12;8.90;99.90
16879;DHT22;8556;52.218;9.884;2024-02-21T03:06:39;9.00;99.90
16879;DHT22;8556;52.218;9.884;2024-02-21T03:09:06;9.00;99.90
16879;DHT22;8556;52.218;9.884;2024-02-21T03:11:35;8.90;99.90
16879;DHT22;8556;52.218;9.884;2024-02-21T03:14:02;8.90;99.90
16879;DHT22;8556;52.218;9.884;2024-02-21T03:16:30;8.90;99.90
16879;DHT22;8556;52.218;9.884;2024-02-21T03:18:57;8.90;99.90
16879;DHT22;8556;52.218;9.884;2024-02-21T03:21:24;9.00;99.90
16879;DHT22;8556;52.218;9.884;2024-02-21T03:23:51;9.00;1.00
16879;DHT22;8556;52.218;9.884;2024-02-21T03:26:18;9.00;1.00
16879;DHT22;8556;52.218;9.884;2024-02-21T03:28:44;9.00;1.00
16879;DHT22;8556;52.218;9.884;2024-02-21T03:31:12;9.10;1.00
16879;DHT22;8556;52.218;9.884;2024-02-21T03:33:42;9.00;1.00
16879;DHT22;8556;52.218;9.884;2024-02-21T03:36:13;9.00;1.00
16879;DHT22;8556;52.218;9.884;2024-02-21T03:38:40;9.00;1.00
16879;DHT22;8556;52.218;9.884;2024-02-21T03:41:07;9.00;1.00
16879;DHT22;8556;52.218;9.884;2024-02-21T03:43:34;9.00;1.00
16879;DHT22;8556;52.218;9.884;2024-02-21T03:46:01;9.10;99.90
16879;DHT22;8556;52.218;9.884;2024-02-21T03:48:27;9.10;99.90
16879;DHT22;8556;52.218;9.884;2024-02-21T03:50:56;8.90;1.00
16879;DHT22;8556;52.218;9.884;2024-02-21T03:53:23;8.90;1.00
16879;DHT22;8556;52.218;9.884;2024-02-21T03:55:49;8.90;1.00
16879;DHT22;8556;52.218;9.884;2024-02-21T03:58:16;8.90;1.00
16879;DHT22;8556;52.218;9.884;2024-02-21T04:00:43;8.80;1.00
16879;DHT22;8556;52.218;9.884;2024-02-21T04:03:10;8.80;1.00
16879;DHT22;8556;52.218;9.884;2024-02-21T04:05:37;8.80;1.00
16879;DHT22;8556;52.218;9.884;2024-02-21T04:08:06;8.70;1.00
16879;DHT22;8556;52.218;9.884;2024-02-21T04:10:33;8.80;1.00
16879;DHT22;8556;52.218;9.884;2024-02-21T04:13:01;8.80;1.00
16879;DHT22;8556;52.218;9.884;2024-02-21T04:15:27;8.80;1.00
16879;DHT22;8556;52.218;9.884;2024-02-21T04:17:54;8.80;1.00
16879;DHT22;8556;52.218;9.884;2024-02-21T04:20:21;8.90;1.00
16879;DHT22;8556;52.218;9.884;2024-02-21T04:22:48;8.90;1.00
16879;DHT22;8556;52.218;9.884;2024-02-21T04:25:17;8.90;1.00
16879;DHT22;8556;52.218;9.884;2024-02-21T04:27:44;8.90;99.90
16879;DHT22;8556;52.218;9.884;2024-02-21T04:30:12;8.90;1.00
16879;DHT22;8556;52.218;9.884;2024-02-21T04:32:39;8.90;1.00
16879;DHT22;8556;52.218;9.884;2024-02-21T04:35:06;8.90;1.00
16879;DHT22;8556;52.218;9.884;2024-02-21T04:37:33;8.80;1.00
16879;DHT22;8556;52.218;9.884;2024-02-21T04:40:00;8.90;1.00
16879;DHT22;8556;52.218;9.884;2024-02-21T04:42:29;8.90;1.00
16879;DHT22;8556;52.218;9.884;2024-02-21T04:44:56;8.90;1.00
16879;DHT22;8556;52.218;9.884;2024-02-21T04:47:23;8.90;1.00
16879;DHT22;8556;52.218;9.884;2024-02-21T04:49:50;8.90;1.00
16879;DHT22;8556;52.218;9.884;2024-02-21T04:52:17;8.90;1.00
16879;DHT22;8556;52.218;9.884;2024-02-21T04:54:44;8.90;1.00
16879;DHT22;8556;52.218;9.884;2024-02-21T04:57:11;8.90;1.00
16879;DHT22;8556;52.218;9.884;2024-02-21T04:59:43;8.90;1.00
16879;DHT22;8556;52.218;9.884;2024-02-21T05:02:10;8.90;1.00
16879;DHT22;8556;52.218;9.884;2024-02-21T05:04:37;8.90;1.00
16879;DHT22;8556;52.218;9.884;2024-02-21T05:07:05;8.90;1.00
16879;DHT22;8556;52.218;9.884;2024-02-21T05:09:32;8.90;1.00
16879;DHT22;8556;52.218;9.884;2024-02-21T05:11:59;9.00;1.00
16879;DHT22;8556;52.218;9.884;2024-02-21T05:14:26;9.10;99.90
16879;DHT22;8556;52.218;9.884;2024-02-21T05:16:54;9.00;1.00
16879;DHT22;8556;52.218;9.884;2024-02-21T05:19:21;9.00;99.90
16879;DHT22;8556;52.218;9.884;2024-02-21T05:21:48;9.00;1.00
16879;DHT22;8556;52.218;9.884;2024-02-21T05:24:15;9.00;1.00
16879;DHT22;8556;52.218;9.884;2024-02-21T05:26:42;9.00;1.00
16879;DHT22;8556;52.218;9.884;2024-02-21T05:29:09;9.00;1.00
16879;DHT22;8556;52.218;9.884;2024-02-21T05:31:56;9.00;1.00
16879;DHT22;8556;52.218;9.884;2024-02-21T05:34:23;9.00;99.90
16879;DHT22;8556;52.218;9.884;2024-02-21T05:36:51;9.00;1.00
16879;DHT22;8556;52.218;9.884;2024-02-21T05:39:18;9.10;99.90
16879;DHT22;8556;52.218;9.884;2024-02-21T05:41:45;9.10;99.90
16879;DHT22;8556;52.218;9.884;2024-02-21T05:44:12;9.00;99.90
16879;DHT22;8556;52.218;9.884;2024-02-21T05:46:39;9.00;99.90
16879;DHT22;8556;52.218;9.884;2024-02-21T05:49:07;9.00;99.90
16879;DHT22;8556;52.218;9.884;2024-02-21T05:51:34;9.00;99.90
16879;DHT22;8556;52.218;9.884;2024-02-21T05:54:01;9.00;99.90
16879;DHT22;8556;52.218;9.884;2024-02-21T05:56:28;9.00;1.00
16879;DHT22;8556;52.218;9.884;2024-02-21T05:58:55;9.00;1.00
16879;DHT22;8556;52.218;9.884;2024-02-21T06:01:22;9.00;99.90
16879;DHT22;8556;52.218;9.884;2024-02-21T06:03:48;9.00;99.90
16879;DHT22;8556;52.218;9.884;2024-02-21T06:06:16;9.00;1.00
16879;DHT22;8556;52.218;9.884;2024-02-21T06:08:43;9.00;1.00
16879;DHT22;8556;52.218;9.884;2024-02-21T06:11:10;8.90;1.00
16879;DHT22;8556;52.218;9.884;2024-02-21T06:13:38;9.00;1.00
16879;DHT22;8556;52.218;9.884;2024-02-21T06:16:06;8.90;99.90
16879;DHT22;8556;52.218;9.884;2024-02-21T06:18:35;9.00;99.90
16879;DHT22;8556;52.218;9.884;2024-02-21T06:21:03;8.90;1.00
16879;DHT22;8556;52.218;9.884;2024-02-21T06:23:32;8.90;1.00
16879;DHT22;8556;52.218;9.884;2024-02-21T06:25:59;8.90;1.00
16879;DHT22;8556;52.218;9.884;2024-02-21T06:28:26;8.90;1.00
16879;DHT22;8556;52.218;9.884;2024-02-21T06:30:53;8.90;1.00
16879;DHT22;8556;52.218;9.884;2024-02-21T06:33:19;8.90;99.90
16879;DHT22;8556;52.218;9.884;2024-02-21T06:35:50;8.90;1.00
16879;DHT22;8556;52.218;9.884;2024-02-21T06:38:18;8.80;1.00
16879;DHT22;8556;52.218;9.884;2024-02-21T06:40:46;8.80;1.00
16879;DHT22;8556;52.218;9.884;2024-02-21T06:43:18;8.80;1.00
16879;DHT22;8556;52.218;9.884;2024-02-21T06:45:45;8.80;1.00
16879;DHT22;8556;52.218;9.884;2024-02-21T06:48:16;8.80;1.00
16879;DHT22;8556;52.218;9.884;2024-02-21T06:50:43;8.80;1.00
16879;DHT22;8556;52.218;9.884;2024-02-21T06:53:10;8.80;1.00
16879;DHT22;8556;52.218;9.884;2024-02-21T06:55:37;8.80;1.00
16879;DHT22;8556;52.218;9.884;2024-02-21T06:58:06;8.80;1.00
16879;DHT22;8556;52.218;9.884;2024-02-21T07:00:37;8.80;1.00
16879;DHT22;8556;52.218;9.884;2024-02-21T07:03:04;8.80;1.00
16879;DHT22;8556;52.218;9.884;2024-02-21T07:05:31;8.80;1.00
16879;DHT22;8556;52.218;9.884;2024-02-21T07:07:58;8.80;1.00
16879;DHT22;8556;52.218;9.884;2024-02-21T07:10:25;8.90;1.00
16879;DHT22;8556;52.218;9.884;2024-02-21T07:12:53;8.90;1.00
16879;DHT22;8556;52.218;9.884;2024-02-21T07:15:21;8.90;1.00
16879;DHT22;8556;52.218;9.884;2024-02-21T07:17:52;8.90;1.00
16879;DHT22;8556;52.218;9.884;2024-02-21T07:20:19;9.00;1.00
16879;DHT22;8556;52.218;9.884;2024-02-21T07:22:46;9.00;1.00
16879;DHT22;8556;52.218;9.884;2024-02-21T07:25:13;9.10;1.00
16879;DHT22;8556;52.218;9.884;2024-02-21T07:27:40;9.00;1.00
16879;DHT22;8556;52.218;9.884;2024-02-21T07:30:08;9.00;1.00
16879;DHT22;8556;52.218;9.884;2024-02-21T07:32:36;9.00;1.00
16879;DHT22;8556;52.218;9.884;2024-02-21T07:35:03;9.10;1.00
16879;DHT22;8556;52.218;9.884;2024-02-21T07:37:31;9.10;99.90
16879;DHT22;8556;52.218;9.884;2024-02-21T07:39:58;9.10;1.00
16879;DHT22;8556;52.218;9.884;2024-02-21T07:42:24;9.10;1.00
16879;DHT22;8556;52.218;9.884;2024-02-21T07:44:51;9.10;1.00
16879;DHT22;8556;52.218;9.884;2024-02-21T07:47:18;9.10;99.90
16879;DHT22;8556;52.218;9.884;2024-02-21T07:49:47;9.20;99.90
16879;DHT22;8556;52.218;9.884;2024-02-21T07:52:14;9.10;1.00
16879;DHT22;8556;52.218;9.884;2024-02-21T07:54:41;9.10;1.00
16879;DHT22;8556;52.218;9.884;2024-02-21T07:57:08;9.10;99.90
16879;DHT22;8556;52.218;9.884;2024-02-21T07:59:35;9.10;99.90
16879;DHT22;8556;52.218;9.884;2024-02-21T08:02:02;9.20;1.00
16879;DHT22;8556;52.218;9.884;2024-02-21T08:04:32;9.10;1.00
16879;DHT22;8556;52.218;9.884;2024-02-21T08:07:00;9.20;1.00
16879;DHT22;8556;52.218;9.884;2024-02-21T08:09:29;9.20;99.90
16879;DHT22;8556;52.218;9.884;2024-02-21T08:11:56;9.20;1.00
16879;DHT22;8556;52.218;9.884;2024-02-21T08:14:23;9.20;1.00
16879;DHT22;8556;52.218;9.884;2024-02-21T08:16:50;9.20;1.00
16879;DHT22;8556;52.218;9.884;2024-02-21T08:19:18;9.20;1.00
16879;DHT22;8556;52.218;9.884;2024-02-21T08:21:45;9.20;1.00
16879;DHT22;8556;52.218;9.884;2024-02-21T08:24:14;9.20;1.00
16879;DHT22;8556;52.218;9.884;2024-02-21T08:26:41;9.10;1.00
16879;DHT22;8556;52.218;9.884;2024-02-21T08:29:10;9.30;1.00
16879;DHT22;8556;52.218;9.884;2024-02-21T08:31:37;9.30;1.00
16879;DHT22;8556;52.218;9.884;2024-02-21T08:34:04;9.30;1.00
16879;DHT22;8556;52.218;9.884;2024-02-21T08:36:31;9.40;99.90
16879;DHT22;8556;52.218;9.884;2024-02-21T08:38:58;9.40;99.90
16879;DHT22;8556;52.218;9.884;2024-02-21T08:41:27;9.40;99.90
16879;DHT22;8556;52.218;9.884;2024-02-21T08:43:54;9.50;99.90
16879;DHT22;8556;52.218;9.884;2024-02-21T08:46:21;9.50;99.90
16879;DHT22;8556;52.218;9.884;2024-02-21T08:48:49;9.50;99.90
16879;DHT22;8556;52.218;9.884;2024-02-21T08:51:16;9.60;99.90
16879;DHT22;8556;52.218;9.884;2024-02-21T08:53:44;9.60;99.90
16879;DHT22;8556;52.218;9.884;2024-02-21T08:56:11;9.70;99.90
16879;DHT22;8556;52.218;9.884;2024-02-21T08:58:40;9.80;1.00
16879;DHT22;8556;52.218;9.884;2024-02-21T09:01:07;9.90;1.00
16879;DHT22;8556;52.218;9.884;2024-02-21T09:03:36;10.00;1.00
16879;DHT22;8556;52.218;9.884;2024-02-21T09:06:05;10.00;1.00
16879;DHT22;8556;52.218;9.884;2024-02-21T09:08:32;10.00;1.00
16879;DHT22;8556;52.218;9.884;2024-02-21T09:10:59;10.00;1.00
16879;DHT22;8556;52.218;9.884;2024-02-21T09:13:26;10.00;1.00
16879;DHT22;8556;52.218;9.884;2024-02-21T09:15:55;10.00;1.00
16879;DHT22;8556;52.218;9.884;2024-02-21T09:18:22;10.00;99.90
16879;DHT22;8556;52.218;9.884;2024-02-21T09:20:49;10.00;99.90
16879;DHT22;8556;52.218;9.884;2024-02-21T09:23:16;10.00;99.90
16879;DHT22;8556;52.218;9.884;2024-02-21T09:25:45;10.00;99.90
16879;DHT22;8556;52.218;9.884;2024-02-21T09:28:12;10.10;99.90
16879;DHT22;8556;52.218;9.884;2024-02-21T09:30:39;10.10;99.90
16879;DHT22;8556;52.218;9.884;2024-02-21T09:33:08;10.10;40.00
16879;DHT22;8556;52.218;9.884;2024-02-21T09:35:34;10.20;1.00
16879;DHT22;8556;52.218;9.884;2024-02-21T09:38:02;10.10;1.00
16879;DHT22;8556;52.218;9.884;2024-02-21T09:40:29;10.10;1.00
16879;DHT22;8556;52.218;9.884;2024-02-21T09:43:02;10.10;1.00
16879;DHT22;8556;52.218;9.884;2024-02-21T09:45:32;10.20;1.00
16879;DHT22;8556;52.218;9.884;2024-02-21T09:48:13;10.30;1.00
16879;DHT22;8556;52.218;9.884;2024-02-21T09:50:43;10.30;1.00
16879;DHT22;8556;52.218;9.884;2024-02-21T09:53:12;10.40;1.00
16879;DHT22;8556;52.218;9.884;2024-02-21T09:55:40;10.50;1.00
16879;DHT22;8556;52.218;9.884;2024-02-21T09:58:07;10.60;1.00
16879;DHT22;8556;52.218;9.884;2024-02-21T10:00:35;10.60;1.00
16879;DHT22;8556;52.218;9.884;2024-02-21T10:03:03;10.60;1.00
16879;DHT22;8556;52.218;9.884;2024-02-21T10:05:37;10.60;1.00
16879;DHT22;8556;52.218;9.884;2024-02-21T10:08:05;10.70;1.00
16879;DHT22;8556;52.218;9.884;2024-02-21T10:10:41;10.70;1.00
16879;DHT22;8556;52.218;9.884;2024-02-21T10:13:09;10.70;1.00
16879;DHT22;8556;52.218;9.884;2024-02-21T10:15:36;10.70;1.00
16879;DHT22;8556;52.218;9.884;2024-02-21T10:18:03;10.80;1.00
16879;DHT22;8556;52.218;9.884;2024-02-21T10:20:31;10.80;1.00
16879;DHT22;8556;52.218;9.884;2024-02-21T10:23:04;10.90;1.00
16879;DHT22;8556;52.218;9.884;2024-02-21T10:25:33;10.90;1.00
16879;DHT22;8556;52.218;9.884;2024-02-21T10:28:01;11.10;1.00
16879;DHT22;8556;52.218;9.884;2024-02-21T10:30:29;11.00;99.90
16879;DHT22;8556;52.218;9.884;2024-02-21T10:32:56;11.10;1.00
16879;DHT22;8556;52.218;9.884;2024-02-21T10:35:26;11.30;99.90
16879;DHT22;8556;52.218;9.884;2024-02-21T10:37:54;11.40;99.90
16879;DHT22;8556;52.218;9.884;2024-02-21T10:40:24;11.50;99.90
16879;DHT22;8556;52.218;9.884;2024-02-21T10:42:56;11.60;99.90
16879;DHT22;8556;52.218;9.884;2024-02-21T10:45:29;11.50;99.90
16879;DHT22;8556;52.218;9.884;2024-02-21T10:48:06;11.50;99.90
16879;DHT22;8556;52.218;9.884;2024-02-21T10:50:40;11.50;99.90
16879;DHT22;8556;52.218;9.884;2024-02-21T10:53:13;11.50;99.90
16879;DHT22;8556;52.218;9.884;2024-02-21T10:55:50;11.50;99.90
16879;DHT22;8556;52.218;9.884;2024-02-21T10:58:21;11.50;99.90
16879;DHT22;8556;52.218;9.884;2024-02-21T11:00:49;11.50;99.90
16879;DHT22;8556;52.218;9.884;2024-02-21T11:03:16;11.50;99.90
16879;DHT22;8556;52.218;9.884;2024-02-21T11:05:44;11.60;99.90
16879;DHT22;8556;52.218;9.884;2024-02-21T11:08:13;11.70;99.90
16879;DHT22;8556;52.218;9.884;2024-02-21T11:10:47;11.70;99.90
16879;DHT22;8556;52.218;9.884;2024-02-21T11:13:14;11.90;99.90
16879;DHT22;8556;52.218;9.884;2024-02-21T11:15:41;11.80;99.90
16879;DHT22;8556;52.218;9.884;2024-02-21T11:18:08;11.60;99.90
16879;DHT22;8556;52.218;9.884;2024-02-21T11:20:36;11.50;99.90
16879;DHT22;8556;52.218;9.884;2024-02-21T11:23:03;11.40;99.90
16879;DHT22;8556;52.218;9.884;2024-02-21T11:25:30;11.40;99.90
16879;DHT22;8556;52.218;9.884;2024-02-21T11:28:01;11.40;99.90
16879;DHT22;8556;52.218;9.884;2024-02-21T11:30:30;11.40;99.90
16879;DHT22;8556;52.218;9.884;2024-02-21T11:33:02;11.40;99.90
16879;DHT22;8556;52.218;9.884;2024-02-21T11:35:32;11.30;99.90
16879;DHT22;8556;52.218;9.884;2024-02-21T11:38:10;11.30;99.90
16879;DHT22;8556;52.218;9.884;2024-02-21T11:40:41;11.40;99.90
16879;DHT22;8556;52.218;9.884;2024-02-21T11:43:09;11.40;99.90
16879;DHT22;8556;52.218;9.884;2024-02-21T11:45:36;11.40;68.80
16879;DHT22;8556;52.218;9.884;2024-02-21T11:48:06;11.40;99.90
16879;DHT22;8556;52.218;9.884;2024-02-21T11:50:34;11.50;99.90
16879;DHT22;8556;52.218;9.884;2024-02-21T11:53:02;11.50;99.70
16879;DHT22;8556;52.218;9.884;2024-02-21T11:55:29;11.50;80.00
16879;DHT22;8556;52.218;9.884;2024-02-21T11:57:56;11.50;45.60
16879;DHT22;8556;52.218;9.884;2024-02-21T12:00:26;11.50;33.90
16879;DHT22;8556;52.218;9.884;2024-02-21T12:02:53;11.40;70.50
16879;DHT22;8556;52.218;9.884;2024-02-21T12:05:21;11.50;57.40
16879;DHT22;8556;52.218;9.884;2024-02-21T12:07:48;11.40;58.40
16879;DHT22;8556;52.218;9.884;2024-02-21T12:10:15;11.60;90.30
16879;DHT22;8556;52.218;9.884;2024-02-21T12:12:42;11.90;90.30
16879;DHT22;8556;52.218;9.884;2024-02-21T12:15:08;12.00;99.70
16879;DHT22;8556;52.218;9.884;2024-02-21T12:17:37;12.10;35.70
16879;DHT22;8556;52.218;9.884;2024-02-21T12:20:05;12.00;64.10
16879;DHT22;8556;52.218;9.884;2024-02-21T12:22:35;11.90;12.60
16879;DHT22;8556;52.218;9.884;2024-02-21T12:25:03;11.90;15.20
16879;DHT22;8556;52.218;9.884;2024-02-21T12:27:33;11.90;1.00
16879;DHT22;8556;52.218;9.884;2024-02-21T12:30:00;12.00;26.30
16879;DHT22;8556;52.218;9.884;2024-02-21T12:32:28;12.10;44.00
16879;DHT22;8556;52.218;9.884;2024-02-21T12:34:56;12.40;56.30
16879;DHT22;8556;52.218;9.884;2024-02-21T12:37:25;12.20;1.40
16879;DHT22;8556;52.218;9.884;2024-02-21T12:39:52;12.20;5.90
16879;DHT22;8556;52.218;9.884;2024-02-21T12:42:19;12.30;1.00
16879;DHT22;8556;52.218;9.884;2024-02-21T12:44:46;12.10;1.00
16879;DHT22;8556;52.218;9.884;2024-02-21T12:47:13;12.20;1.00
16879;DHT22;8556;52.218;9.884;2024-02-21T12:49:39;12.40;1.00
16879;DHT22;8556;52.218;9.884;2024-02-21T12:52:08;12.50;1.00
16879;DHT22;8556;52.218;9.884;2024-02-21T12:54:36;12.40;1.00
16879;DHT22;8556;52.218;9.884;2024-02-21T12:57:03;12.20;1.00
16879;DHT22;8556;52.218;9.884;2024-02-21T12:59:30;12.30;1.00
16879;DHT22;8556;52.218;9.884;2024-02-21T13:01:57;12.50;1.00
16879;DHT22;8556;52.218;9.884;2024-02-21T13:04:24;12.60;1.00
16879;DHT22;8556;52.218;9.884;2024-02-21T13:06:51;12.40;1.00
16879;DHT22;8556;52.218;9.884;2024-02-21T13:09:19;12.50;1.00
16879;DHT22;8556;52.218;9.884;2024-02-21T13:11:46;12.40;1.00
16879;DHT22;8556;52.218;9.884;2024-02-21T13:14:13;12.20;1.00
16879;DHT22;8556;52.218;9.884;2024-02-21T13:16:40;12.10;1.00
16879;DHT22;8556;52.218;9.884;2024-02-21T13:19:07;12.10;1.00
16879;DHT22;8556;52.218;9.884;2024-02-21T13:21:35;12.20;1.00
16879;DHT22;8556;52.218;9.884;2024-02-21T13:24:03;12.10;1.00
16879;DHT22;8556;52.218;9.884;2024-02-21T13:26:31;12.00;1.00
16879;DHT22;8556;52.218;9.884;2024-02-21T13:28:58;12.00;1.00
16879;DHT22;8556;52.218;9.884;2024-02-21T13:31:25;12.10;1.00
16879;DHT22;8556;52.218;9.884;2024-02-21T13:33:52;12.10;1.00
16879;DHT22;8556;52.218;9.884;2024-02-21T13:36:19;12.10;1.00
16879;DHT22;8556;52.218;9.884;2024-02-21T13:38:46;12.20;1.00
16879;DHT22;8556;52.218;9.884;2024-02-21T13:41:13;12.20;1.00
16879;DHT22;8556;52.218;9.884;2024-02-21T13:43:41;12.10;1.00
16879;DHT22;8556;52.218;9.884;2024-02-21T13:46:07;12.00;1.00
16879;DHT22;8556;52.218;9.884;2024-02-21T13:48:36;12.00;1.00
16879;DHT22;8556;52.218;9.884;2024-02-21T13:51:04;11.90;1.00
16879;DHT22;8556;52.218;9.884;2024-02-21T13:53:31;11.90;1.00
16879;DHT22;8556;52.218;9.884;2024-02-21T13:55:58;11.90;1.00
16879;DHT22;8556;52.218;9.884;2024-02-21T13:58:25;11.90;1.00
16879;DHT22;8556;52.218;9.884;2024-02-21T14:00:53;12.00;1.00
16879;DHT22;8556;52.218;9.884;2024-02-21T14:03:22;11.90;1.00
16879;DHT22;8556;52.218;9.884;2024-02-21T14:05:49;12.00;1.00
16879;DHT22;8556;52.218;9.884;2024-02-21T14:08:16;12.00;1.00
16879;DHT22;8556;52.218;9.884;2024-02-21T14:10:43;11.90;1.00
16879;DHT22;8556;52.218;9.884;2024-02-21T14:13:10;11.90;1.00
16879;DHT22;8556;52.218;9.884;2024-02-21T14:15:37;11.80;3.80
16879;DHT22;8556;52.218;9.884;2024-02-21T14:18:07;11.80;18.30
16879;DHT22;8556;52.218;9.884;2024-02-21T14:20:35;11.70;18.70
16879;DHT22;8556;52.218;9.884;2024-02-21T14:23:02;11.60;63.50
16879;DHT22;8556;52.218;9.884;2024-02-21T14:25:30;11.60;44.00
16879;DHT22;8556;52.218;9.884;2024-02-21T14:27:57;11.60;99.90
16879;DHT22;8556;52.218;9.884;2024-02-21T14:30:26;11.60;99.90
16879;DHT22;8556;52.218;9.884;2024-02-21T14:32:53;11.50;99.90
16879;DHT22;8556;52.218;9.884;2024-02-21T14:35:21;11.50;99.90
16879;DHT22;8556;52.218;9.884;2024-02-21T14:37:49;11.50;99.90
16879;DHT22;8556;52.218;9.884;2024-02-21T14:40:16;11.40;99.90
16879;DHT22;8556;52.218;9.884;2024-02-21T14:42:45;11.50;99.90
16879;DHT22;8556;52.218;9.884;2024-02-21T14:45:12;11.50;99.90
16879;DHT22;8556;52.218;9.884;2024-02-21T14:47:39;11.50;99.90
16879;DHT22;8556;52.218;9.884;2024-02-21T14:50:07;11.40;99.90
16879;DHT22;8556;52.218;9.884;2024-02-21T14:52:35;11.30;99.90
16879;DHT22;8556;52.218;9.884;2024-02-21T14:55:02;11.30;99.90
16879;DHT22;8556;52.218;9.884;2024-02-21T14:57:30;11.40;99.90
16879;DHT22;8556;52.218;9.884;2024-02-21T14:59:57;11.40;99.90
16879;DHT22;8556;52.218;9.884;2024-02-21T15:02:24;11.40;99.90
16879;DHT22;8556;52.218;9.884;2024-02-21T15:04:53;11.40;99.90
16879;DHT22;8556;52.218;9.884;2024-02-21T15:07:20;11.30;99.90
16879;DHT22;8556;52.218;9.884;2024-02-21T15:09:50;11.30;99.90
16879;DHT22;8556;52.218;9.884;2024-02-21T15:12:17;11.20;99.90
16879;DHT22;8556;52.218;9.884;2024-02-21T15:14:45;11.20;99.90
16879;DHT22;8556;52.218;9.884;2024-02-21T15:17:11;11.20;99.90
16879;DHT22;8556;52.218;9.884;2024-02-21T15:19:39;11.10;99.90
16879;DHT22;8556;52.218;9.884;2024-02-21T15:22:09;11.10;99.90
16879;DHT22;8556;52.218;9.884;2024-02-21T15:24:37;10.90;99.90
16879;DHT22;8556;52.218;9.884;2024-02-21T15:27:06;10.90;99.90
16879;DHT22;8556;52.218;9.884;2024-02-21T15:29:34;10.80;99.90
16879;DHT22;8556;52.218;9.884;2024-02-21T15:32:01;10.90;99.90
16879;DHT22;8556;52.218;9.884;2024-02-21T15:34:28;10.90;99.90
16879;DHT22;8556;52.218;9.884;2024-02-21T15:36:56;10.80;99.90
16879;DHT22;8556;52.218;9.884;2024-02-21T15:39:23;10.80;99.90
16879;DHT22;8556;52.218;9.884;2024-02-21T15:41:52;10.70;99.90
16879;DHT22;8556;52.218;9.884;2024-02-21T15:44:20;10.60;99.90
16879;DHT22;8556;52.218;9.884;2024-02-21T15:46:48;10.60;99.90
16879;DHT22;8556;52.218;9.884;2024-02-21T15:49:16;10.50;99.90
16879;DHT22;8556;52.218;9.884;2024-02-21T15:51:43;10.50;1.00
16879;DHT22;8556;52.218;9.884;2024-02-21T15:54:10;10.40;1.00
16879;DHT22;8556;52.218;9.884;2024-02-21T15:56:37;10.40;1.00
16879;DHT22;8556;52.218;9.884;2024-02-21T15:59:04;10.30;1.00
16879;DHT22;8556;52.218;9.884;2024-02-21T16:01:32;10.20;1.00
16879;DHT22;8556;52.218;9.884;2024-02-21T16:04:00;10.20;99.90
16879;DHT22;8556;52.218;9.884;2024-02-21T16:06:27;10.20;99.90
16879;DHT22;8556;52.218;9.884;2024-02-21T16:08:54;10.10;1.00